Time;durP1;ratioP1;P1;durP2;ratioP2;P2;SDS_P1;SDS_P2;PMS_P1;PMS_P2;Temp;Humidity;BMP_temperature;BMP_pressure;BME280_temperature;BME280_humidity;BME280_pressure;Samples;Min_cycle;Max_cycle;Signal;HPM_P1;HPM_P2
2023/05/13 00:00:00;;;;;;;4.45;2.97;;;;;;;21.60;28.74;101656.56;5017961;27;99259;-74
2023/05/13 00:02:26;;;;;;;11.43;3.15;;;;;;;21.40;29.04;101653.38;5025714;27;99483;-74
2023/05/13 00:04:52;;;;;;;5.45;3.40;;;;;;;21.43;29.05;101655.88;5024443;27;97601;-74
2023/05/13 00:07:19;;;;;;;8.05;3.08;;;;;;;21.47;28.86;101646.63;5025085;27;98623;-75
2023/05/13 00:09:45;;;;;;;4.78;3.35;;;;;;;21.45;29.19;101647.72;5020508;27;99756;-75
2023/05/13 00:12:13;;;;;;;10.02;3.10;;;;;;;21.37;29.34;101656.28;5020221;27;100833;-75
2023/05/13 00:14:40;;;;;;;8.07;2.85;;;;;;;21.37;29.28;101653.59;5032035;27;96810;-76
2023/05/13 00:17:06;;;;;;;14.25;3.20;;;;;;;21.37;29.27;101650.03;5020067;27;99301;-74
2023/05/13 00:19:32;;;;;;;10.00;3.00;;;;;;;21.20;29.67;101648.44;5026055;27;99581;-75
2023/05/13 00:21:59;;;;;;;5.72;3.08;;;;;;;21.40;29.29;101660.56;5020295;27;96970;-74
2023/05/13 00:24:26;;;;;;;6.82;3.10;;;;;;;21.24;29.55;101657.19;5028535;27;99127;-74
2023/05/13 00:26:53;;;;;;;17.58;3.10;;;;;;;21.36;29.45;101659.06;5029145;27;98990;-74
2023/05/13 00:29:21;;;;;;;9.52;3.20;;;;;;;21.38;29.57;101659.84;5026539;27;98274;-74
2023/05/13 00:31:47;;;;;;;14.20;2.83;;;;;;;21.40;29.35;101666.81;5026284;27;102717;-74
2023/05/13 00:34:13;;;;;;;5.30;3.85;;;;;;;21.45;29.15;101655.78;5018121;27;96833;-75
2023/05/13 00:36:40;;;;;;;11.88;3.15;;;;;;;21.25;29.58;101664.28;5018547;27;97054;-74
2023/05/13 00:39:06;;;;;;;9.20;3.42;;;;;;;21.01;29.79;101664.88;5027130;27;99197;-75
2023/05/13 00:41:33;;;;;;;8.38;3.50;;;;;;;21.21;29.58;101674.34;5025510;27;99288;-74
2023/05/13 00:43:59;;;;;;;7.53;3.30;;;;;;;21.24;29.69;101674.19;5027376;27;96777;-75
2023/05/13 00:46:30;;;;;;;5.15;2.90;;;;;;;21.01;29.80;101672.94;5028816;27;96781;-74
2023/05/13 00:48:57;;;;;;;5.90;3.45;;;;;;;21.25;29.70;101677.72;5027705;27;98838;-75
2023/05/13 00:51:23;;;;;;;7.45;3.10;;;;;;;21.17;29.60;101671.97;5028899;27;101610;-74
2023/05/13 00:53:51;;;;;;;10.68;3.10;;;;;;;20.79;30.46;101664.53;5025771;27;96898;-74
2023/05/13 00:56:19;;;;;;;5.90;2.83;;;;;;;20.99;30.25;101674.88;5028042;27;96724;-74
2023/05/13 00:58:45;;;;;;;8.02;3.72;;;;;;;20.91;30.31;101674.50;5023644;27;101229;-75
2023/05/13 01:01:24;;;;;;;10.23;3.25;;;;;;;21.17;30.02;101680.91;5025018;27;98792;-74
2023/05/13 01:04:00;;;;;;;4.30;2.78;;;;;;;21.22;29.81;101677.91;5028449;27;96855;-74
2023/05/13 01:06:33;;;;;;;14.10;3.43;;;;;;;21.33;29.66;101675.41;5022388;27;98777;-75
2023/05/13 01:09:08;;;;;;;7.32;3.42;;;;;;;21.24;29.90;101682.25;5017833;27;98395;-74
2023/05/13 01:11:38;;;;;;;7.07;3.28;;;;;;;21.35;29.53;101679.69;5019256;27;97524;-74
2023/05/13 01:14:12;;;;;;;8.43;3.30;;;;;;;21.30;29.67;101684.53;5018966;27;96795;-74
2023/05/13 01:16:42;;;;;;;11.65;3.63;;;;;;;21.14;30.53;101681.06;5023856;27;98897;-73
2023/05/13 01:19:26;;;;;;;14.15;3.55;;;;;;;21.32;29.78;101690.66;5025401;27;98910;-73
2023/05/13 01:21:54;;;;;;;7.05;3.30;;;;;;;21.46;29.41;101698.66;5021930;27;99271;-73
2023/05/13 01:24:20;;;;;;;7.38;3.38;;;;;;;21.53;29.21;101699.13;5023347;27;96932;-73
2023/05/13 01:26:48;;;;;;;10.23;3.85;;;;;;;21.26;29.80;101698.28;5017929;27;98543;-73
2023/05/13 01:29:14;;;;;;;12.10;4.18;;;;;;;21.26;29.53;101696.44;5024396;27;101719;-73
2023/05/13 01:31:42;;;;;;;9.15;3.50;;;;;;;20.98;29.92;101696.47;5022541;27;98920;-73
2023/05/13 01:34:10;;;;;;;8.57;3.30;;;;;;;21.00;30.22;101706.13;5026632;27;99065;-73
2023/05/13 01:36:37;;;;;;;6.65;3.15;;;;;;;20.98;30.02;101696.47;5016520;27;97715;-73
2023/05/13 01:39:05;;;;;;;11.57;3.17;;;;;;;20.93;30.22;101704.81;5023313;27;102346;-73
2023/05/13 01:41:31;;;;;;;11.02;3.58;;;;;;;20.94;30.22;101708.34;5019427;27;98924;-73
2023/05/13 01:43:58;;;;;;;11.35;3.25;;;;;;;20.93;30.25;101701.28;5026885;27;97278;-74
2023/05/13 01:46:24;;;;;;;10.80;4.00;;;;;;;21.00;29.89;101711.50;5027189;27;96845;-74
2023/05/13 01:48:51;;;;;;;5.47;3.50;;;;;;;21.01;30.06;101709.69;5021152;27;99461;-74
2023/05/13 01:51:17;;;;;;;9.82;3.42;;;;;;;20.79;30.36;101718.25;5017526;27;101976;-74
2023/05/13 01:53:43;;;;;;;10.23;3.50;;;;;;;20.64;30.60;101719.22;5023702;27;97685;-76
2023/05/13 01:56:11;;;;;;;11.73;4.07;;;;;;;20.79;30.36;101710.19;5024394;27;98760;-75
2023/05/13 01:58:37;;;;;;;14.48;3.40;;;;;;;20.69;30.24;101704.53;5026373;27;100226;-75
2023/05/13 02:01:04;;;;;;;10.77;3.60;;;;;;;20.74;30.27;101709.63;5020064;27;100140;-75
2023/05/13 02:03:30;;;;;;;9.52;3.25;;;;;;;20.61;30.70;101704.13;5022035;27;96894;-76
2023/05/13 02:05:56;;;;;;;7.32;3.72;;;;;;;20.72;30.49;101708.88;5015894;27;99035;-75
2023/05/13 02:08:24;;;;;;;10.18;3.65;;;;;;;20.73;30.38;101713.28;5021527;27;99039;-74
2023/05/13 02:10:54;;;;;;;7.57;3.40;;;;;;;20.73;30.62;101713.28;5020375;27;98507;-74
2023/05/13 02:13:22;;;;;;;8.63;3.03;;;;;;;20.49;30.75;101710.28;5020117;27;96764;-74
2023/05/13 02:15:49;;;;;;;17.55;3.70;;;;;;;20.60;30.91;101715.00;5019833;27;97079;-75
2023/05/13 02:18:15;;;;;;;9.10;3.60;;;;;;;20.70;31.00;101713.44;5024011;27;101669;-74
2023/05/13 02:20:41;;;;;;;9.55;3.35;;;;;;;20.75;30.61;101711.34;5013072;27;98730;-74
2023/05/13 02:23:08;;;;;;;7.55;3.22;;;;;;;20.71;30.64;101720.56;5018626;27;98711;-75
2023/05/13 02:25:34;;;;;;;10.10;3.53;;;;;;;20.70;30.69;101713.44;5027486;27;96943;-75
2023/05/13 02:28:01;;;;;;;4.22;2.90;;;;;;;20.67;30.83;101709.16;5027760;27;100897;-75
2023/05/13 02:30:28;;;;;;;5.07;3.05;;;;;;;20.53;30.66;101710.97;5023699;27;97819;-75
2023/05/13 02:32:55;;;;;;;9.02;3.85;;;;;;;20.54;30.81;101708.19;5030895;27;97923;-74
2023/05/13 02:35:23;;;;;;;8.88;4.20;;;;;;;20.47;30.61;101714.03;5025024;27;97129;-73
2023/05/13 02:37:49;;;;;;;8.35;3.40;;;;;;;20.40;30.88;101716.22;5023920;27;97717;-74
2023/05/13 02:40:16;;;;;;;11.27;3.70;;;;;;;20.20;31.20;101719.22;5021021;27;101121;-74
2023/05/13 02:42:43;;;;;;;5.90;3.40;;;;;;;20.28;30.91;101725.84;5029748;27;97663;-74
2023/05/13 02:45:10;;;;;;;8.25;3.47;;;;;;;20.11;31.29;101726.00;5025169;27;99282;-74
2023/05/13 02:47:38;;;;;;;10.75;4.20;;;;;;;20.23;31.16;101730.63;5018691;27;99016;-74
2023/05/13 02:50:06;;;;;;;6.88;3.40;;;;;;;20.20;31.22;101720.09;5018219;27;99026;-73
2023/05/13 02:52:34;;;;;;;7.30;3.67;;;;;;;20.21;31.45;101726.31;5021767;27;97632;-74
2023/05/13 02:55:01;;;;;;;10.00;3.17;;;;;;;20.29;31.20;101722.19;5029491;27;97035;-74
2023/05/13 02:57:27;;;;;;;16.50;3.80;;;;;;;20.26;31.00;101724.22;5025769;27;97742;-74
2023/05/13 02:59:54;;;;;;;10.43;3.63;;;;;;;20.16;31.48;101723.03;5019503;27;98758;-74
2023/05/13 03:02:20;;;;;;;7.07;3.38;;;;;;;20.17;31.46;101725.63;5017336;27;98123;-74
2023/05/13 03:04:48;;;;;;;9.75;3.75;;;;;;;20.22;31.18;101731.56;5028067;27;96885;-75
2023/05/13 03:07:14;;;;;;;7.18;3.63;;;;;;;20.34;30.91;101723.78;5023588;27;97864;-74
2023/05/13 03:09:41;;;;;;;10.23;3.60;;;;;;;20.42;30.70;101726.84;5015705;27;99285;-75
2023/05/13 03:12:08;;;;;;;11.52;3.75;;;;;;;20.30;30.64;101731.97;5022508;27;97079;-75
2023/05/13 03:14:35;;;;;;;7.32;3.40;;;;;;;20.52;30.79;101725.34;5023746;27;97077;-74
2023/05/13 03:17:02;;;;;;;10.27;3.60;;;;;;;20.39;30.71;101724.38;5024725;27;98824;-74
2023/05/13 03:19:28;;;;;;;6.30;3.63;;;;;;;20.20;30.95;101725.47;5021222;27;99109;-74
2023/05/13 03:21:56;;;;;;;8.02;3.15;;;;;;;20.13;31.15;101732.16;5025255;27;98728;-74
2023/05/13 03:24:23;;;;;;;7.50;4.00;;;;;;;20.17;30.77;101733.69;5019261;27;97260;-74
2023/05/13 03:26:49;;;;;;;11.52;3.60;;;;;;;20.19;31.00;101736.28;5016217;27;98762;-74
2023/05/13 03:29:15;;;;;;;6.22;3.17;;;;;;;20.04;31.25;101734.50;5019121;27;98802;-75
2023/05/13 03:31:42;;;;;;;10.38;3.05;;;;;;;20.13;31.25;101739.31;5023037;27;96801;-74
2023/05/13 03:34:09;;;;;;;10.75;3.97;;;;;;;20.25;30.95;101741.28;5023033;27;97180;-73
2023/05/13 03:36:35;;;;;;;6.63;3.35;;;;;;;20.07;30.92;101735.19;5024968;27;99028;-75
2023/05/13 03:39:03;;;;;;;4.95;3.60;;;;;;;20.08;31.12;101746.78;5023583;27;98777;-74
2023/05/13 03:41:29;;;;;;;11.60;4.03;;;;;;;20.06;31.25;101744.19;5022844;27;96753;-74
2023/05/13 03:43:56;;;;;;;9.90;3.58;;;;;;;19.99;31.15;101737.47;5019888;27;97184;-73
2023/05/13 03:46:22;;;;;;;8.25;3.65;;;;;;;19.85;31.32;101748.13;5021181;27;99296;-74
2023/05/13 03:48:49;;;;;;;7.72;3.63;;;;;;;19.84;31.37;101746.41;5018682;27;99468;-74
2023/05/13 03:51:15;;;;;;;5.93;3.25;;;;;;;19.80;31.43;101739.50;5020948;27;97633;-74
2023/05/13 03:53:42;;;;;;;9.43;3.90;;;;;;;19.69;31.56;101740.09;5020286;27;96822;-74
2023/05/13 03:56:09;;;;;;;11.45;3.95;;;;;;;19.86;31.26;101749.88;5023701;27;98954;-75
2023/05/13 03:58:36;;;;;;;10.05;3.50;;;;;;;19.89;31.46;101752.34;5017337;27;98952;-76
2023/05/13 04:01:02;;;;;;;7.90;3.47;;;;;;;20.16;31.05;101749.84;5016932;27;96804;-74
2023/05/13 04:03:28;;;;;;;12.18;3.67;;;;;;;20.17;30.84;101755.16;5026956;27;96918;-77
2023/05/13 04:05:55;;;;;;;7.38;3.35;;;;;;;20.22;30.91;101754.84;5022137;27;97928;-74
2023/05/13 04:08:21;;;;;;;6.47;3.50;;;;;;;20.07;30.97;101766.53;5018735;27;98780;-74
2023/05/13 04:10:47;;;;;;;9.95;3.70;;;;;;;20.11;30.75;101766.25;5015348;27;98363;-75
2023/05/13 04:13:15;;;;;;;8.43;3.70;;;;;;;20.16;30.85;101771.31;5025296;27;96932;-74
2023/05/13 04:15:41;;;;;;;8.55;3.85;;;;;;;20.04;30.83;101769.38;5024161;27;101031;-74
2023/05/13 04:18:08;;;;;;;8.70;3.55;;;;;;;19.98;31.11;101781.34;5030386;27;101590;-71
2023/05/13 04:20:34;;;;;;;10.77;3.70;;;;;;;19.96;31.02;101777.88;5020732;27;97627;-74
2023/05/13 04:23:01;;;;;;;6.35;3.85;;;;;;;19.92;31.04;101788.88;5018831;27;99076;-74
2023/05/13 04:25:27;;;;;;;9.18;3.55;;;;;;;19.87;31.08;101781.09;5015920;27;99192;-74
2023/05/13 04:27:54;;;;;;;11.50;3.67;;;;;;;20.02;30.89;101784.72;5021783;27;100945;-74
2023/05/13 04:30:22;;;;;;;8.13;3.58;;;;;;;20.26;30.76;101794.88;5017424;27;97091;-73
2023/05/13 04:32:48;;;;;;;8.55;4.05;;;;;;;20.18;30.67;101790.91;5022713;27;97136;-73
2023/05/13 04:35:14;;;;;;;8.48;3.85;;;;;;;20.35;30.47;101788.09;5025351;27;101356;-74
2023/05/13 04:37:41;;;;;;;7.60;3.03;;;;;;;20.45;30.37;101789.28;5022807;27;96881;-74
2023/05/13 04:40:08;;;;;;;10.73;3.50;;;;;;;20.73;30.00;101788.47;5025058;27;97178;-73
2023/05/13 04:42:35;;;;;;;10.75;3.78;;;;;;;20.71;29.73;101793.06;5028763;27;96908;-73
2023/05/13 04:45:01;;;;;;;7.88;3.50;;;;;;;20.73;29.46;101795.66;5029842;27;98167;-73
2023/05/13 04:47:29;;;;;;;9.23;3.53;;;;;;;20.72;29.48;101802.00;5028972;27;98767;-72
2023/05/13 04:49:55;;;;;;;9.48;3.20;;;;;;;20.61;29.73;101808.03;5020990;27;97351;-74
2023/05/13 04:52:21;;;;;;;6.93;3.30;;;;;;;20.54;29.72;101804.84;5022684;27;99083;-73
2023/05/13 04:54:48;;;;;;;8.63;3.75;;;;;;;20.86;29.40;101802.00;5023637;27;99272;-72
2023/05/13 04:57:14;;;;;;;13.30;3.80;;;;;;;20.80;29.09;101810.47;5026756;27;99319;-74
2023/05/13 04:59:40;;;;;;;11.70;3.53;;;;;;;20.92;28.96;101802.50;5023914;27;96972;-74
2023/05/13 05:02:07;;;;;;;5.70;3.10;;;;;;;20.84;28.76;101817.34;5023521;28;97252;-72
2023/05/13 05:04:35;;;;;;;6.75;3.47;;;;;;;20.93;28.81;101806.91;5026362;27;99033;-73
2023/05/13 05:07:01;;;;;;;9.00;3.63;;;;;;;21.15;28.60;101811.78;5029865;27;99361;-73
2023/05/13 05:09:28;;;;;;;7.57;3.45;;;;;;;21.32;28.12;101814.34;5019699;27;96751;-73
2023/05/13 05:11:55;;;;;;;9.45;3.50;;;;;;;21.69;27.77;101811.94;5022842;27;96850;-73
2023/05/13 05:14:21;;;;;;;8.35;3.72;;;;;;;21.57;28.06;101818.13;5020859;27;98029;-73
2023/05/13 05:16:48;;;;;;;7.30;3.55;;;;;;;21.65;27.88;101811.31;5024289;27;98850;-74
2023/05/13 05:19:14;;;;;;;7.43;3.45;;;;;;;21.52;27.97;101815.75;5026959;27;99018;-74
2023/05/13 05:21:42;;;;;;;8.20;3.40;;;;;;;21.37;28.09;101819.41;5026887;27;97038;-77
2023/05/13 05:24:08;;;;;;;6.18;3.38;;;;;;;21.65;27.89;101815.81;5028187;27;99885;-75
2023/05/13 05:26:35;;;;;;;9.48;3.65;;;;;;;21.77;27.64;101823.09;5015827;27;99002;-75
2023/05/13 05:29:01;;;;;;;6.25;3.00;;;;;;;21.85;27.58;101818.94;5016684;27;97180;-75
2023/05/13 05:31:27;;;;;;;7.78;3.00;;;;;;;22.04;27.18;101823.13;5023853;27;97267;-75
2023/05/13 05:33:55;;;;;;;5.30;2.85;;;;;;;22.10;27.31;101823.59;5018962;27;102443;-75
2023/05/13 05:36:21;;;;;;;4.53;2.85;;;;;;;21.98;26.54;101818.16;5020230;27;99245;-75
2023/05/13 05:38:49;;;;;;;10.75;3.35;;;;;;;21.99;27.21;101827.97;5021588;27;97445;-75
2023/05/13 05:41:15;;;;;;;12.30;3.55;;;;;;;22.22;26.67;101829.97;5024764;27;96959;-76
2023/05/13 05:43:42;;;;;;;11.35;2.88;;;;;;;22.25;26.45;101837.84;5021706;27;98128;-75
2023/05/13 05:46:08;;;;;;;7.80;3.35;;;;;;;22.44;26.35;101837.47;5022808;27;99275;-76
2023/05/13 05:48:35;;;;;;;8.27;2.75;;;;;;;22.48;26.31;101834.44;5024032;27;97369;-75
2023/05/13 05:51:02;;;;;;;10.32;3.47;;;;;;;22.74;25.81;101840.78;5025654;27;97374;-75
2023/05/13 05:53:29;;;;;;;10.00;3.50;;;;;;;22.62;25.79;101837.06;5026810;27;99135;-75
2023/05/13 05:55:57;;;;;;;8.35;3.42;;;;;;;22.62;25.81;101837.06;5025909;27;98814;-74
2023/05/13 05:58:25;;;;;;;5.75;3.08;;;;;;;22.80;25.56;101843.03;5016783;27;97718;-74
2023/05/13 06:00:53;;;;;;;8.70;3.05;;;;;;;22.73;25.95;101843.56;5022448;27;96897;-75
2023/05/13 06:03:19;;;;;;;6.60;3.05;;;;;;;22.74;25.78;101837.22;5021319;27;100759;-74
2023/05/13 06:05:45;;;;;;;10.65;2.78;;;;;;;22.74;25.46;101846.16;5022560;27;102905;-74
2023/05/13 06:08:12;;;;;;;9.40;3.13;;;;;;;22.61;25.65;101839.88;5011607;27;98860;-75
2023/05/13 06:10:38;;;;;;;9.45;2.78;;;;;;;22.80;25.64;101845.72;5020308;27;97497;-75
2023/05/13 06:13:06;;;;;;;10.40;2.83;;;;;;;23.10;25.48;101856.22;5023433;27;99494;-75
2023/05/13 06:15:33;;;;;;;6.45;3.38;;;;;;;23.69;24.72;101843.88;5021712;27;98812;-74
2023/05/13 06:18:00;;;;;;;5.88;2.90;;;;;;;23.94;24.35;101839.34;5022947;27;98449;-75
2023/05/13 06:20:27;;;;;;;6.50;2.97;;;;;;;24.03;23.97;101847.59;5019156;27;98927;-75
2023/05/13 06:22:53;;;;;;;5.22;2.70;;;;;;;24.15;23.83;101844.03;5024258;27;99463;-75
2023/05/13 06:25:19;;;;;;;6.70;3.10;;;;;;;24.33;23.75;101846.31;5008689;27;97582;-74
2023/05/13 06:27:46;;;;;;;7.07;2.78;;;;;;;24.19;23.57;101844.66;5014718;27;99278;-74
2023/05/13 06:30:14;;;;;;;5.40;2.78;;;;;;;23.73;24.23;101842.66;5012971;27;97694;-74
2023/05/13 06:32:40;;;;;;;8.52;3.08;;;;;;;24.01;23.99;101841.50;5011114;27;98650;-75
2023/05/13 06:35:07;;;;;;;13.93;2.95;;;;;;;24.17;23.99;101847.44;5013347;27;99018;-74
2023/05/13 06:37:34;;;;;;;6.38;3.08;;;;;;;24.16;23.63;101845.72;5011014;27;96911;-75
2023/05/13 06:40:00;;;;;;;13.98;3.42;;;;;;;24.21;23.23;101838.19;5012487;27;99138;-74
2023/05/13 06:42:27;;;;;;;9.65;2.83;;;;;;;23.99;23.17;101838.03;5009867;27;99059;-73
2023/05/13 06:44:53;;;;;;;5.10;2.42;;;;;;;24.08;23.01;101840.06;5016271;27;98879;-73
2023/05/13 06:47:21;;;;;;;6.18;2.90;;;;;;;24.00;23.26;101838.91;5015679;27;99356;-74
2023/05/13 06:49:47;;;;;;;7.10;2.97;;;;;;;24.24;23.32;101839.78;5014717;27;97134;-74
2023/05/13 06:52:14;;;;;;;8.25;3.08;;;;;;;24.20;22.93;101827.50;5014118;27;99005;-73
2023/05/13 06:54:40;;;;;;;7.30;2.75;;;;;;;24.56;22.38;101838.19;5014464;27;99230;-75
2023/05/13 06:57:06;;;;;;;11.45;2.25;;;;;;;24.72;22.55;101826.19;5012784;27;98356;-73
2023/05/13 06:59:33;;;;;;;6.22;2.70;;;;;;;25.10;22.23;101829.47;5011596;27;96897;-73
2023/05/13 07:01:59;;;;;;;7.55;2.83;;;;;;;24.79;21.33;101822.91;5017079;27;98228;-72
2023/05/13 07:04:28;;;;;;;6.03;2.67;;;;;;;24.99;21.29;101822.22;5013519;27;101029;-74
2023/05/13 07:06:54;;;;;;;4.47;2.78;;;;;;;25.58;21.20;101822.00;5012762;27;99295;-75
2023/05/13 07:09:21;;;;;;;3.90;2.55;;;;;;;25.74;21.26;101816.16;5014780;27;98519;-74
2023/05/13 07:11:47;;;;;;;4.47;2.25;;;;;;;25.55;20.99;101814.06;5017910;27;100869;-73
2023/05/13 07:14:13;;;;;;;10.82;2.50;;;;;;;26.19;20.51;101815.03;5017170;27;98806;-73
2023/05/13 07:16:40;;;;;;;5.90;2.30;;;;;;;26.58;20.21;101815.38;5016202;27;97280;-73
2023/05/13 07:19:06;;;;;;;6.00;2.42;;;;;;;26.45;19.56;101820.97;5020909;27;97639;-75
2023/05/13 07:21:35;;;;;;;3.70;2.17;;;;;;;26.11;19.79;101813.97;5024638;27;98890;-75
2023/05/13 07:24:04;;;;;;;3.08;2.17;;;;;;;26.14;19.61;101809.16;5015010;27;98809;-75
2023/05/13 07:26:30;;;;;;;5.80;2.10;;;;;;;25.89;19.56;101809.50;5022353;27;97031;-75
2023/05/13 07:28:56;;;;;;;3.85;2.05;;;;;;;25.85;19.83;101807.16;5017208;27;96894;-75
2023/05/13 07:31:23;;;;;;;11.88;2.92;;;;;;;25.67;19.95;101804.97;5019031;27;98913;-74
2023/05/13 07:33:49;;;;;;;9.32;2.65;;;;;;;25.87;19.43;101806.03;5018428;27;101053;-74
2023/05/13 07:36:16;;;;;;;8.57;2.30;;;;;;;25.63;19.55;101802.66;5021304;27;96690;-75
2023/05/13 07:38:43;;;;;;;4.93;2.30;;;;;;;25.42;19.41;101799.81;5021158;27;97436;-75
2023/05/13 07:41:10;;;;;;;4.57;2.13;;;;;;;25.51;19.55;101793.69;5021119;27;99490;-75
2023/05/13 07:43:39;;;;;;;7.80;2.33;;;;;;;25.21;19.50;101797.00;5016818;27;99141;-75
2023/05/13 07:46:05;;;;;;;3.97;1.85;;;;;;;24.80;19.44;101797.59;5013256;27;101629;-76
2023/05/13 07:48:32;;;;;;;3.10;2.13;;;;;;;24.95;19.42;101800.94;5014499;27;97370;-78
2023/05/13 07:50:58;;;;;;;6.45;2.47;;;;;;;24.93;19.38;101795.66;5022987;27;99285;-76
2023/05/13 07:53:25;;;;;;;10.30;2.20;;;;;;;24.97;19.42;101797.13;5024723;27;99152;-77
2023/05/13 07:55:53;;;;;;;7.28;2.00;;;;;;;25.40;18.82;101782.88;5015438;27;97966;-76
2023/05/13 07:58:19;;;;;;;2.83;1.65;;;;;;;25.44;18.74;101775.34;5019794;27;97288;-77
2023/05/13 08:00:48;;;;;;;5.95;1.70;;;;;;;25.72;18.79;101780.25;5020510;27;97168;-75
2023/05/13 08:03:15;;;;;;;7.60;1.73;;;;;;;25.66;18.47;101781.63;5024580;27;101666;-76
2023/05/13 08:05:41;;;;;;;7.70;2.40;;;;;;;25.56;18.51;101780.63;5013298;27;98187;-75
2023/05/13 08:08:08;;;;;;;8.75;2.60;;;;;;;26.02;18.31;101777.69;5019026;27;98036;-78
2023/05/13 08:10:34;;;;;;;4.97;1.98;;;;;;;25.67;18.77;101782.47;5016367;27;101996;-76
2023/05/13 08:13:02;;;;;;;7.00;1.95;;;;;;;26.05;18.57;101777.44;5017747;27;97198;-76
2023/05/13 08:15:29;;;;;;;5.78;2.20;;;;;;;26.04;18.66;101791.97;5021279;27;98834;-76
2023/05/13 08:17:55;;;;;;;8.60;2.00;;;;;;;26.04;19.05;101796.53;5021819;27;96919;-75
2023/05/13 08:20:28;;;;;;;6.28;2.08;;;;;;;25.99;19.44;101788.75;5016149;27;98919;-76
2023/05/13 08:22:54;;;;;;;5.75;2.25;;;;;;;25.98;19.45;101788.91;5022913;27;97893;-75
2023/05/13 08:25:21;;;;;;;6.28;2.00;;;;;;;25.88;19.55;101787.94;5023127;27;97123;-75
2023/05/13 08:27:47;;;;;;;10.25;2.63;;;;;;;25.57;19.75;101787.78;5023699;27;98321;-76
2023/05/13 08:30:16;;;;;;;3.40;2.00;;;;;;;25.52;20.08;101798.09;5017425;27;100640;-76
2023/05/13 08:32:42;;;;;;;7.75;2.50;;;;;;;25.15;20.71;101796.63;5013024;27;99066;-76
2023/05/13 08:35:09;;;;;;;5.30;2.13;;;;;;;25.08;20.72;101798.13;5025047;27;96863;-75
2023/05/13 08:37:36;;;;;;;4.32;2.42;;;;;;;25.38;20.96;101795.66;5030745;27;97129;-75
2023/05/13 08:40:03;;;;;;;6.07;2.03;;;;;;;25.50;20.34;101791.94;5024953;27;102810;-75
2023/05/13 08:42:32;;;;;;;4.57;2.20;;;;;;;25.54;20.51;101787.13;5025385;27;99093;-75
2023/05/13 08:45:04;;;;;;;5.00;2.50;;;;;;;25.47;20.42;101794.88;5023428;27;96951;-76
2023/05/13 08:47:43;;;;;;;4.55;2.55;;;;;;;25.49;20.31;101797.47;5037930;27;96725;-76
2023/05/13 08:50:12;;;;;;;10.48;2.25;;;;;;;25.22;20.62;101808.69;5031849;27;99385;-77
2023/05/13 08:52:39;;;;;;;9.63;2.72;;;;;;;25.52;20.53;101802.66;5024947;27;98838;-75
2023/05/13 08:55:07;;;;;;;3.85;1.88;;;;;;;25.71;20.72;101805.59;5021884;27;98313;-75
2023/05/13 08:57:33;;;;;;;6.00;2.20;;;;;;;25.63;20.80;101803.53;5026823;27;98050;-74
2023/05/13 08:59:59;;;;;;;6.30;2.40;;;;;;;25.56;20.71;101796.84;5028041;27;99008;-76
2023/05/13 09:02:26;;;;;;;5.57;2.47;;;;;;;25.90;20.79;101800.38;5022413;27;100965;-77
2023/05/13 09:05:11;;;;;;;6.30;2.53;;;;;;;26.15;20.30;101797.31;5029080;27;96844;-75
2023/05/13 09:07:39;;;;;;;6.32;2.20;;;;;;;25.64;20.82;101797.13;5027921;27;97021;-73
2023/05/13 09:10:09;;;;;;;6.93;2.83;;;;;;;25.52;21.03;101792.69;5029633;27;101728;-77
2023/05/13 09:12:53;;;;;;;5.15;2.30;;;;;;;25.69;20.96;101800.31;5024683;27;98797;-76
2023/05/13 09:15:21;;;;;;;4.68;2.30;;;;;;;26.01;20.01;101794.91;5020677;27;97104;-75
2023/05/13 09:17:51;;;;;;;3.60;2.10;;;;;;;26.19;19.72;101790.66;5011321;27;98938;-73
2023/05/13 09:20:20;;;;;;;4.72;2.13;;;;;;;26.44;19.67;101784.06;5015535;27;101505;-73
2023/05/13 09:22:47;;;;;;;6.32;2.25;;;;;;;25.89;19.43;101787.81;5022107;27;100186;-73
2023/05/13 09:25:16;;;;;;;6.47;2.40;;;;;;;25.78;19.89;101785.16;5015994;27;97576;-77
2023/05/13 09:27:44;;;;;;;4.40;1.85;;;;;;;25.76;19.76;101774.44;5021099;27;97334;-73
2023/05/13 09:30:11;;;;;;;3.17;2.00;;;;;;;25.68;19.99;101776.06;5028729;27;99102;-73
2023/05/13 09:32:41;;;;;;;10.48;2.00;;;;;;;26.01;19.37;101769.69;5025670;27;99019;-75
2023/05/13 09:35:15;;;;;;;3.97;2.38;;;;;;;26.38;19.23;101773.75;5023043;27;97409;-74
2023/05/13 09:37:44;;;;;;;5.85;1.92;;;;;;;25.82;19.59;101783.91;5024611;27;96798;-75
2023/05/13 09:40:12;;;;;;;6.25;2.17;;;;;;;25.87;19.53;101783.50;5027985;27;99159;-73
2023/05/13 09:42:41;;;;;;;5.28;2.10;;;;;;;25.57;19.98;101774.25;5021936;27;99337;-73
2023/05/13 09:45:09;;;;;;;4.60;2.35;;;;;;;25.50;19.67;101770.31;5017532;27;96904;-73
2023/05/13 09:47:36;;;;;;;4.25;1.85;;;;;;;25.76;19.63;101770.88;5015254;27;97691;-73
2023/05/13 09:50:03;;;;;;;5.85;1.95;;;;;;;26.09;19.20;101784.31;5011504;27;99141;-73
2023/05/13 09:52:30;;;;;;;7.35;2.22;;;;;;;26.29;18.33;101779.06;5020713;27;99377;-73
2023/05/13 09:54:58;;;;;;;9.65;1.98;;;;;;;26.62;18.17;101776.16;5025516;27;96903;-74
2023/05/13 09:57:27;;;;;;;4.30;2.97;;;;;;;26.60;17.73;101767.31;5019332;27;97895;-73
2023/05/13 09:59:56;;;;;;;8.30;2.00;;;;;;;26.37;17.72;101763.88;5012331;27;99339;-74
2023/05/13 10:02:25;;;;;;;9.07;1.67;;;;;;;26.33;16.93;101773.25;5014951;27;98799;-74
2023/05/13 10:04:53;;;;;;;4.95;2.08;;;;;;;26.15;16.94;101767.53;5028491;27;97231;-74
2023/05/13 10:07:23;;;;;;;4.40;1.50;;;;;;;26.53;16.74;101769.69;5014728;27;98472;-74
2023/05/13 10:09:52;;;;;;;5.10;1.83;;;;;;;26.34;16.61;101765.97;5025283;27;100253;-72
2023/05/13 10:12:21;;;;;;;9.00;2.00;;;;;;;26.31;16.60;101767.13;5015859;27;98213;-73
2023/05/13 10:14:50;;;;;;;4.47;1.80;;;;;;;26.41;16.95;101773.47;5025401;27;96979;-74
2023/05/13 10:17:17;;;;;;;3.75;2.22;;;;;;;26.12;17.10;101764.25;5015126;27;97770;-73
2023/05/13 10:19:44;;;;;;;4.68;1.88;;;;;;;26.22;16.90;101758.88;5018246;27;100055;-75
2023/05/13 10:22:11;;;;;;;3.63;1.80;;;;;;;26.65;16.63;101750.66;5032174;27;98150;-75
2023/05/13 10:24:39;;;;;;;7.20;1.92;;;;;;;26.58;16.30;101758.47;5027509;27;96686;-76
2023/05/13 10:27:06;;;;;;;4.90;1.60;;;;;;;26.77;16.46;101746.88;5017016;27;97753;-75
2023/05/13 10:29:37;;;;;;;4.68;1.88;;;;;;;26.85;16.10;101757.88;5023844;27;99361;-75
2023/05/13 10:32:05;;;;;;;2.70;1.80;;;;;;;26.76;16.08;101762.28;5034979;27;99139;-75
2023/05/13 10:34:33;;;;;;;6.25;2.22;;;;;;;26.62;16.19;101753.63;5016383;27;97303;-76
2023/05/13 10:37:15;;;;;;;7.97;1.90;;;;;;;26.31;16.70;101759.00;5017525;27;96926;-74
2023/05/13 10:40:12;;;;;;;5.10;1.88;;;;;;;26.71;16.61;101752.84;5031053;27;98979;-75
2023/05/13 10:42:47;;;;;;;5.90;1.67;;;;;;;26.67;16.54;101749.50;5026508;27;98777;-75
2023/05/13 10:45:17;;;;;;;5.03;1.40;;;;;;;26.77;16.11;101755.00;5029433;27;97205;-75
2023/05/13 10:47:43;;;;;;;4.78;1.80;;;;;;;26.63;16.25;101752.63;5021190;27;97293;-75
2023/05/13 10:50:23;;;;;;;3.88;2.00;;;;;;;26.47;16.50;101751.25;5027874;27;102382;-75
2023/05/13 10:52:50;;;;;;;5.82;1.88;;;;;;;26.42;16.26;101745.38;5033671;27;98802;-74
2023/05/13 10:55:18;;;;;;;2.65;1.60;;;;;;;26.60;16.64;101745.63;5024715;27;96853;-75
2023/05/13 10:58:09;;;;;;;4.18;2.05;;;;;;;26.78;16.56;101749.41;5020466;27;97855;-75
2023/05/13 11:00:38;;;;;;;4.25;1.88;;;;;;;26.49;16.65;101752.00;5028097;27;99397;-74
2023/05/13 11:03:12;;;;;;;6.25;1.80;;;;;;;26.58;16.58;101740.31;5023496;27;98982;-75
2023/05/13 11:05:41;;;;;;;7.53;1.90;;;;;;;26.41;16.16;101764.47;5022477;27;97289;-75
2023/05/13 11:08:08;;;;;;;7.22;1.95;;;;;;;25.85;16.32;101740.34;5022764;27;98554;-75
2023/05/13 11:10:35;;;;;;;5.68;1.80;;;;;;;26.08;16.70;101752.78;5038929;27;99073;-76
2023/05/13 11:13:19;;;;;;;6.15;1.90;;;;;;;26.34;16.06;101744.31;5034277;27;98964;-74
2023/05/13 11:15:49;;;;;;;2.15;1.73;;;;;;;26.29;16.06;101739.28;5038838;27;96777;-75
2023/05/13 11:18:16;;;;;;;6.40;1.73;;;;;;;26.52;16.28;101738.16;5035804;27;96879;-74
2023/05/13 11:20:46;;;;;;;6.47;2.20;;;;;;;26.28;15.69;101743.00;5037640;27;100005;-73
2023/05/13 11:23:17;;;;;;;2.95;1.63;;;;;;;26.50;15.56;101751.00;5037200;27;99359;-74